sensor_id;sensor_type;location;lat;lon;timestamp;temperature;humidity
9103;DHT22;4587;51.434;6.788;2023-05-08T00:00:56;16.60;99.90
9103;DHT22;4587;51.434;6.788;2023-05-08T00:03:22;16.50;99.90
9103;DHT22;4587;51.434;6.788;2023-05-08T00:05:48;16.50;99.90
9103;DHT22;4587;51.434;6.788;2023-05-08T00:08:14;16.60;99.90
9103;DHT22;4587;51.434;6.788;2023-05-08T00:10:39;16.60;99.90
9103;DHT22;4587;51.434;6.788;2023-05-08T00:13:05;16.50;99.90
9103;DHT22;4587;51.434;6.788;2023-05-08T00:15:31;16.50;99.90
9103;DHT22;4587;51.434;6.788;2023-05-08T00:17:56;16.60;99.90
9103;DHT22;4587;51.434;6.788;2023-05-08T00:20:22;16.60;99.90
9103;DHT22;4587;51.434;6.788;2023-05-08T00:22:48;16.50;99.90
9103;DHT22;4587;51.434;6.788;2023-05-08T00:25:13;16.50;99.90
9103;DHT22;4587;51.434;6.788;2023-05-08T00:27:39;16.40;99.90
9103;DHT22;4587;51.434;6.788;2023-05-08T00:30:06;16.40;99.90
9103;DHT22;4587;51.434;6.788;2023-05-08T00:32:32;16.30;99.90
9103;DHT22;4587;51.434;6.788;2023-05-08T00:34:57;16.30;99.90
9103;DHT22;4587;51.434;6.788;2023-05-08T00:37:23;16.40;99.90
9103;DHT22;4587;51.434;6.788;2023-05-08T00:39:48;16.30;99.90
9103;DHT22;4587;51.434;6.788;2023-05-08T00:42:14;16.20;99.90
9103;DHT22;4587;51.434;6.788;2023-05-08T00:44:39;16.20;99.90
9103;DHT22;4587;51.434;6.788;2023-05-08T00:47:06;16.30;99.90
9103;DHT22;4587;51.434;6.788;2023-05-08T00:49:33;16.10;99.90
9103;DHT22;4587;51.434;6.788;2023-05-08T00:52:02;16.10;99.90
9103;DHT22;4587;51.434;6.788;2023-05-08T00:54:29;16.10;99.90
9103;DHT22;4587;51.434;6.788;2023-05-08T00:56:55;16.00;99.90
9103;DHT22;4587;51.434;6.788;2023-05-08T00:59:20;16.00;99.90
9103;DHT22;4587;51.434;6.788;2023-05-08T01:01:47;15.90;99.90
9103;DHT22;4587;51.434;6.788;2023-05-08T01:04:14;16.00;99.90
9103;DHT22;4587;51.434;6.788;2023-05-08T01:06:40;16.00;99.90
9103;DHT22;4587;51.434;6.788;2023-05-08T01:09:06;16.00;99.90
9103;DHT22;4587;51.434;6.788;2023-05-08T01:14:47;15.90;99.90
9103;DHT22;4587;51.434;6.788;2023-05-08T01:25:41;15.90;99.90
9103;DHT22;4587;51.434;6.788;2023-05-08T01:34:02;15.80;99.90
9103;DHT22;4587;51.434;6.788;2023-05-08T01:39:12;16.00;99.90
9103;DHT22;4587;51.434;6.788;2023-05-08T01:41:45;15.80;99.90
9103;DHT22;4587;51.434;6.788;2023-05-08T01:44:17;15.80;99.90
9103;DHT22;4587;51.434;6.788;2023-05-08T01:46:48;15.90;99.90
9103;DHT22;4587;51.434;6.788;2023-05-08T01:49:27;15.90;99.90
9103;DHT22;4587;51.434;6.788;2023-05-08T01:52:06;15.80;99.90
9103;DHT22;4587;51.434;6.788;2023-05-08T01:54:42;15.80;99.90
9103;DHT22;4587;51.434;6.788;2023-05-08T01:57:09;15.80;99.90
9103;DHT22;4587;51.434;6.788;2023-05-08T01:59:37;15.70;99.90
9103;DHT22;4587;51.434;6.788;2023-05-08T02:02:03;15.80;99.90
9103;DHT22;4587;51.434;6.788;2023-05-08T02:04:31;15.80;99.90
9103;DHT22;4587;51.434;6.788;2023-05-08T02:06:59;15.80;99.90
9103;DHT22;4587;51.434;6.788;2023-05-08T02:09:27;15.70;99.90
9103;DHT22;4587;51.434;6.788;2023-05-08T02:11:54;15.70;99.90
9103;DHT22;4587;51.434;6.788;2023-05-08T02:14:21;15.70;99.90
9103;DHT22;4587;51.434;6.788;2023-05-08T02:16:49;15.70;99.90
9103;DHT22;4587;51.434;6.788;2023-05-08T02:19:16;15.70;99.90
9103;DHT22;4587;51.434;6.788;2023-05-08T02:21:43;15.60;99.90
9103;DHT22;4587;51.434;6.788;2023-05-08T02:24:10;15.60;99.90
9103;DHT22;4587;51.434;6.788;2023-05-08T02:26:38;15.60;99.90
9103;DHT22;4587;51.434;6.788;2023-05-08T02:29:05;15.60;99.90
9103;DHT22;4587;51.434;6.788;2023-05-08T02:31:32;15.60;99.90
9103;DHT22;4587;51.434;6.788;2023-05-08T02:33:58;15.60;99.90
9103;DHT22;4587;51.434;6.788;2023-05-08T02:36:25;15.70;99.90
9103;DHT22;4587;51.434;6.788;2023-05-08T02:38:53;15.60;99.90
9103;DHT22;4587;51.434;6.788;2023-05-08T02:41:21;15.60;99.90
9103;DHT22;4587;51.434;6.788;2023-05-08T02:43:49;15.70;99.90
9103;DHT22;4587;51.434;6.788;2023-05-08T02:46:26;15.60;99.90
9103;DHT22;4587;51.434;6.788;2023-05-08T02:49:00;15.60;99.90
9103;DHT22;4587;51.434;6.788;2023-05-08T02:51:46;15.50;99.90
9103;DHT22;4587;51.434;6.788;2023-05-08T02:54:17;15.50;99.90
9103;DHT22;4587;51.434;6.788;2023-05-08T02:57:44;15.50;99.90
9103;DHT22;4587;51.434;6.788;2023-05-08T02:59:54;15.50;99.90
9103;DHT22;4587;51.434;6.788;2023-05-08T03:02:46;15.50;99.90
9103;DHT22;4587;51.434;6.788;2023-05-08T03:05:18;15.40;99.90
9103;DHT22;4587;51.434;6.788;2023-05-08T03:07:49;15.40;99.90
9103;DHT22;4587;51.434;6.788;2023-05-08T03:10:16;15.50;99.90
9103;DHT22;4587;51.434;6.788;2023-05-08T03:12:45;15.50;99.90
9103;DHT22;4587;51.434;6.788;2023-05-08T03:15:24;15.50;99.90
9103;DHT22;4587;51.434;6.788;2023-05-08T03:18:01;15.40;99.90
9103;DHT22;4587;51.434;6.788;2023-05-08T03:20:32;15.40;99.90
9103;DHT22;4587;51.434;6.788;2023-05-08T03:23:01;15.40;99.90
9103;DHT22;4587;51.434;6.788;2023-05-08T03:25:28;15.40;99.90
9103;DHT22;4587;51.434;6.788;2023-05-08T03:27:55;15.50;99.90
9103;DHT22;4587;51.434;6.788;2023-05-08T03:30:22;15.60;99.90
9103;DHT22;4587;51.434;6.788;2023-05-08T03:32:48;15.50;99.90
9103;DHT22;4587;51.434;6.788;2023-05-08T03:35:15;15.50;99.90
9103;DHT22;4587;51.434;6.788;2023-05-08T03:37:41;15.70;99.90
9103;DHT22;4587;51.434;6.788;2023-05-08T03:40:08;15.70;99.90
9103;DHT22;4587;51.434;6.788;2023-05-08T03:42:34;15.70;99.90
9103;DHT22;4587;51.434;6.788;2023-05-08T03:45:02;15.60;99.90
9103;DHT22;4587;51.434;6.788;2023-05-08T03:47:27;15.50;99.90
9103;DHT22;4587;51.434;6.788;2023-05-08T03:49:54;15.50;99.90
9103;DHT22;4587;51.434;6.788;2023-05-08T03:52:20;15.50;99.90
9103;DHT22;4587;51.434;6.788;2023-05-08T03:54:46;15.50;99.90
9103;DHT22;4587;51.434;6.788;2023-05-08T03:57:11;15.50;99.90
9103;DHT22;4587;51.434;6.788;2023-05-08T03:59:57;15.60;99.90
9103;DHT22;4587;51.434;6.788;2023-05-08T04:02:32;15.50;99.90
9103;DHT22;4587;51.434;6.788;2023-05-08T04:05:28;15.50;99.90
9103;DHT22;4587;51.434;6.788;2023-05-08T04:08:14;15.40;99.90
9103;DHT22;4587;51.434;6.788;2023-05-08T04:10:49;15.40;99.90
9103;DHT22;4587;51.434;6.788;2023-05-08T04:13:26;15.30;99.90
9103;DHT22;4587;51.434;6.788;2023-05-08T04:16:03;15.30;99.90
9103;DHT22;4587;51.434;6.788;2023-05-08T04:18:30;15.30;99.90
9103;DHT22;4587;51.434;6.788;2023-05-08T04:21:00;15.50;99.90
9103;DHT22;4587;51.434;6.788;2023-05-08T04:23:27;15.40;99.90
9103;DHT22;4587;51.434;6.788;2023-05-08T04:25:54;15.40;99.90
9103;DHT22;4587;51.434;6.788;2023-05-08T04:28:21;15.40;99.90
9103;DHT22;4587;51.434;6.788;2023-05-08T04:30:47;15.50;99.90
9103;DHT22;4587;51.434;6.788;2023-05-08T04:33:13;15.60;99.90
9103;DHT22;4587;51.434;6.788;2023-05-08T04:35:39;15.50;99.90
9103;DHT22;4587;51.434;6.788;2023-05-08T04:38:05;15.50;99.90
9103;DHT22;4587;51.434;6.788;2023-05-08T04:40:31;15.60;99.90
9103;DHT22;4587;51.434;6.788;2023-05-08T04:42:56;15.60;99.90
9103;DHT22;4587;51.434;6.788;2023-05-08T04:45:22;15.60;99.90
9103;DHT22;4587;51.434;6.788;2023-05-08T04:47:48;15.70;99.90
9103;DHT22;4587;51.434;6.788;2023-05-08T04:50:13;15.70;99.90
9103;DHT22;4587;51.434;6.788;2023-05-08T04:52:39;15.80;99.90
9103;DHT22;4587;51.434;6.788;2023-05-08T04:55:05;15.90;99.90
9103;DHT22;4587;51.434;6.788;2023-05-08T04:57:30;15.80;99.90
9103;DHT22;4587;51.434;6.788;2023-05-08T04:59:56;15.80;99.90
9103;DHT22;4587;51.434;6.788;2023-05-08T05:02:21;15.80;99.90
9103;DHT22;4587;51.434;6.788;2023-05-08T05:04:49;15.90;99.90
9103;DHT22;4587;51.434;6.788;2023-05-08T05:07:15;15.90;99.90
9103;DHT22;4587;51.434;6.788;2023-05-08T05:09:40;16.00;99.90
9103;DHT22;4587;51.434;6.788;2023-05-08T05:12:06;15.50;99.90
9103;DHT22;4587;51.434;6.788;2023-05-08T05:14:32;16.00;99.90
9103;DHT22;4587;51.434;6.788;2023-05-08T05:16:58;15.90;99.90
9103;DHT22;4587;51.434;6.788;2023-05-08T05:19:23;16.10;99.90
9103;DHT22;4587;51.434;6.788;2023-05-08T05:24:15;16.10;99.90
9103;DHT22;4587;51.434;6.788;2023-05-08T05:29:10;16.20;99.90
9103;DHT22;4587;51.434;6.788;2023-05-08T05:31:36;16.20;99.90
9103;DHT22;4587;51.434;6.788;2023-05-08T05:34:01;16.40;99.90
9103;DHT22;4587;51.434;6.788;2023-05-08T05:36:27;16.40;99.90
9103;DHT22;4587;51.434;6.788;2023-05-08T05:38:53;16.50;99.90
9103;DHT22;4587;51.434;6.788;2023-05-08T05:41:19;16.90;99.90
9103;DHT22;4587;51.434;6.788;2023-05-08T05:43:44;16.60;99.90
9103;DHT22;4587;51.434;6.788;2023-05-08T05:46:10;16.50;99.90
9103;DHT22;4587;51.434;6.788;2023-05-08T05:48:36;16.60;99.90
9103;DHT22;4587;51.434;6.788;2023-05-08T05:51:02;16.60;99.90
9103;DHT22;4587;51.434;6.788;2023-05-08T05:53:27;15.10;99.90
9103;DHT22;4587;51.434;6.788;2023-05-08T05:55:53;16.70;99.90
9103;DHT22;4587;51.434;6.788;2023-05-08T05:58:19;16.80;99.90
9103;DHT22;4587;51.434;6.788;2023-05-08T06:00:45;16.80;99.90
9103;DHT22;4587;51.434;6.788;2023-05-08T06:03:11;16.90;99.90
9103;DHT22;4587;51.434;6.788;2023-05-08T06:05:38;17.10;99.90
9103;DHT22;4587;51.434;6.788;2023-05-08T06:08:05;17.20;99.90
9103;DHT22;4587;51.434;6.788;2023-05-08T06:10:31;17.30;99.90
9103;DHT22;4587;51.434;6.788;2023-05-08T06:12:56;17.80;99.90
9103;DHT22;4587;51.434;6.788;2023-05-08T06:15:22;18.00;99.90
9103;DHT22;4587;51.434;6.788;2023-05-08T06:17:47;17.70;99.90
9103;DHT22;4587;51.434;6.788;2023-05-08T06:20:13;17.70;99.90
9103;DHT22;4587;51.434;6.788;2023-05-08T06:22:39;17.50;99.90
9103;DHT22;4587;51.434;6.788;2023-05-08T06:25:06;18.10;99.90
9103;DHT22;4587;51.434;6.788;2023-05-08T06:27:32;18.00;99.90
9103;DHT22;4587;51.434;6.788;2023-05-08T06:29:59;18.10;99.90
9103;DHT22;4587;51.434;6.788;2023-05-08T06:32:25;18.20;99.90
9103;DHT22;4587;51.434;6.788;2023-05-08T06:34:50;18.30;99.90
9103;DHT22;4587;51.434;6.788;2023-05-08T06:37:16;18.50;99.90
9103;DHT22;4587;51.434;6.788;2023-05-08T06:39:42;18.90;99.90
9103;DHT22;4587;51.434;6.788;2023-05-08T06:42:08;19.30;99.90
9103;DHT22;4587;51.434;6.788;2023-05-08T06:44:34;19.50;99.90
9103;DHT22;4587;51.434;6.788;2023-05-08T06:47:00;19.70;99.90
9103;DHT22;4587;51.434;6.788;2023-05-08T06:49:25;20.00;99.90
9103;DHT22;4587;51.434;6.788;2023-05-08T06:51:51;21.00;99.90
9103;DHT22;4587;51.434;6.788;2023-05-08T06:54:16;21.80;99.90
9103;DHT22;4587;51.434;6.788;2023-05-08T06:56:43;22.60;99.90
9103;DHT22;4587;51.434;6.788;2023-05-08T06:59:09;23.50;99.90
9103;DHT22;4587;51.434;6.788;2023-05-08T07:01:34;23.90;99.90
9103;DHT22;4587;51.434;6.788;2023-05-08T07:04:01;23.90;99.90
9103;DHT22;4587;51.434;6.788;2023-05-08T07:06:27;24.40;99.90
9103;DHT22;4587;51.434;6.788;2023-05-08T07:08:53;25.60;99.90
9103;DHT22;4587;51.434;6.788;2023-05-08T07:11:18;26.50;99.90
9103;DHT22;4587;51.434;6.788;2023-05-08T07:13:44;27.30;99.90
9103;DHT22;4587;51.434;6.788;2023-05-08T07:16:12;27.80;99.90
9103;DHT22;4587;51.434;6.788;2023-05-08T07:18:38;28.50;99.90
9103;DHT22;4587;51.434;6.788;2023-05-08T07:21:04;29.30;99.90
9103;DHT22;4587;51.434;6.788;2023-05-08T07:23:29;29.80;99.90
9103;DHT22;4587;51.434;6.788;2023-05-08T07:25:55;29.80;99.90
9103;DHT22;4587;51.434;6.788;2023-05-08T07:28:21;30.20;99.90
9103;DHT22;4587;51.434;6.788;2023-05-08T07:30:47;30.40;98.70
9103;DHT22;4587;51.434;6.788;2023-05-08T07:33:12;30.90;99.70
9103;DHT22;4587;51.434;6.788;2023-05-08T07:35:38;31.50;99.20
9103;DHT22;4587;51.434;6.788;2023-05-08T07:38:04;32.00;98.20
9103;DHT22;4587;51.434;6.788;2023-05-08T07:40:30;31.60;94.80
9103;DHT22;4587;51.434;6.788;2023-05-08T07:42:55;32.20;93.70
9103;DHT22;4587;51.434;6.788;2023-05-08T07:45:21;32.80;92.70
9103;DHT22;4587;51.434;6.788;2023-05-08T07:47:54;32.90;91.60
9103;DHT22;4587;51.434;6.788;2023-05-08T07:50:20;32.80;92.40
9103;DHT22;4587;51.434;6.788;2023-05-08T07:52:46;32.20;96.30
9103;DHT22;4587;51.434;6.788;2023-05-08T07:55:12;31.00;99.90
9103;DHT22;4587;51.434;6.788;2023-05-08T07:57:42;30.40;82.70
9103;DHT22;4587;51.434;6.788;2023-05-08T08:00:10;30.70;85.30
9103;DHT22;4587;51.434;6.788;2023-05-08T08:02:36;31.00;86.30
9103;DHT22;4587;51.434;6.788;2023-05-08T08:05:03;31.10;85.00
9103;DHT22;4587;51.434;6.788;2023-05-08T08:07:29;31.00;84.20
9103;DHT22;4587;51.434;6.788;2023-05-08T08:10:00;30.40;87.20
9103;DHT22;4587;51.434;6.788;2023-05-08T08:12:26;29.50;90.70
9103;DHT22;4587;51.434;6.788;2023-05-08T08:14:53;28.90;93.10
9103;DHT22;4587;51.434;6.788;2023-05-08T08:17:18;28.60;95.80
9103;DHT22;4587;51.434;6.788;2023-05-08T08:19:44;28.00;95.40
9103;DHT22;4587;51.434;6.788;2023-05-08T08:22:09;27.40;99.70
9103;DHT22;4587;51.434;6.788;2023-05-08T08:24:35;27.00;99.90
9103;DHT22;4587;51.434;6.788;2023-05-08T08:27:01;26.30;99.90
9103;DHT22;4587;51.434;6.788;2023-05-08T08:29:26;25.60;99.90
9103;DHT22;4587;51.434;6.788;2023-05-08T08:31:52;25.00;99.90
9103;DHT22;4587;51.434;6.788;2023-05-08T08:34:17;24.60;99.90
9103;DHT22;4587;51.434;6.788;2023-05-08T08:36:44;24.30;99.90
9103;DHT22;4587;51.434;6.788;2023-05-08T08:39:09;24.10;99.90
9103;DHT22;4587;51.434;6.788;2023-05-08T08:41:37;24.10;99.90
9103;DHT22;4587;51.434;6.788;2023-05-08T08:44:04;24.00;99.90
9103;DHT22;4587;51.434;6.788;2023-05-08T08:46:30;23.90;99.90
9103;DHT22;4587;51.434;6.788;2023-05-08T08:48:58;23.80;99.90
9103;DHT22;4587;51.434;6.788;2023-05-08T08:51:31;23.80;99.90
9103;DHT22;4587;51.434;6.788;2023-05-08T08:54:08;23.80;99.90
9103;DHT22;4587;51.434;6.788;2023-05-08T08:56:35;23.70;99.90
9103;DHT22;4587;51.434;6.788;2023-05-08T08:59:03;23.70;99.90
9103;DHT22;4587;51.434;6.788;2023-05-08T09:01:33;23.60;99.90
9103;DHT22;4587;51.434;6.788;2023-05-08T09:04:00;23.60;99.90
9103;DHT22;4587;51.434;6.788;2023-05-08T09:06:27;23.50;99.90
9103;DHT22;4587;51.434;6.788;2023-05-08T09:08:56;23.50;99.90
9103;DHT22;4587;51.434;6.788;2023-05-08T09:11:22;23.40;99.90
9103;DHT22;4587;51.434;6.788;2023-05-08T09:13:48;23.40;99.90
9103;DHT22;4587;51.434;6.788;2023-05-08T09:16:14;23.40;99.90
9103;DHT22;4587;51.434;6.788;2023-05-08T09:18:39;23.40;99.90
9103;DHT22;4587;51.434;6.788;2023-05-08T09:21:05;23.30;99.90
9103;DHT22;4587;51.434;6.788;2023-05-08T09:25:57;23.20;99.90
9103;DHT22;4587;51.434;6.788;2023-05-08T09:28:24;23.10;99.90
9103;DHT22;4587;51.434;6.788;2023-05-08T09:33:17;23.10;99.90
9103;DHT22;4587;51.434;6.788;2023-05-08T09:35:43;22.90;99.90
9103;DHT22;4587;51.434;6.788;2023-05-08T09:38:08;22.80;99.90
9103;DHT22;4587;51.434;6.788;2023-05-08T09:41:15;22.70;99.90
9103;DHT22;4587;51.434;6.788;2023-05-08T09:43:42;22.60;99.90
9103;DHT22;4587;51.434;6.788;2023-05-08T09:46:24;22.60;99.90
9103;DHT22;4587;51.434;6.788;2023-05-08T09:48:55;22.60;99.90
9103;DHT22;4587;51.434;6.788;2023-05-08T09:51:21;22.60;99.90
9103;DHT22;4587;51.434;6.788;2023-05-08T09:53:49;22.60;99.90
9103;DHT22;4587;51.434;6.788;2023-05-08T09:56:31;22.50;99.90
9103;DHT22;4587;51.434;6.788;2023-05-08T09:58:57;22.50;99.90
9103;DHT22;4587;51.434;6.788;2023-05-08T10:01:31;22.60;99.90
9103;DHT22;4587;51.434;6.788;2023-05-08T10:03:57;22.70;99.90
9103;DHT22;4587;51.434;6.788;2023-05-08T10:06:24;22.80;99.90
9103;DHT22;4587;51.434;6.788;2023-05-08T10:09:14;23.00;99.90
9103;DHT22;4587;51.434;6.788;2023-05-08T10:11:41;23.10;99.90
9103;DHT22;4587;51.434;6.788;2023-05-08T10:14:07;23.10;99.90
9103;DHT22;4587;51.434;6.788;2023-05-08T10:16:41;23.00;99.90
9103;DHT22;4587;51.434;6.788;2023-05-08T10:19:15;23.10;99.90
9103;DHT22;4587;51.434;6.788;2023-05-08T10:21:52;23.20;99.90
9103;DHT22;4587;51.434;6.788;2023-05-08T10:27:08;22.90;99.90
9103;DHT22;4587;51.434;6.788;2023-05-08T10:29:53;22.90;99.90
9103;DHT22;4587;51.434;6.788;2023-05-08T10:32:22;22.90;99.90
9103;DHT22;4587;51.434;6.788;2023-05-08T10:34:58;22.80;99.90
9103;DHT22;4587;51.434;6.788;2023-05-08T10:37:24;22.70;99.90
9103;DHT22;4587;51.434;6.788;2023-05-08T10:39:53;22.70;99.90
9103;DHT22;4587;51.434;6.788;2023-05-08T10:42:19;22.60;99.90
9103;DHT22;4587;51.434;6.788;2023-05-08T10:44:46;22.60;99.90
9103;DHT22;4587;51.434;6.788;2023-05-08T10:47:25;22.60;99.90
9103;DHT22;4587;51.434;6.788;2023-05-08T10:50:03;22.80;99.90
9103;DHT22;4587;51.434;6.788;2023-05-08T10:52:35;22.80;99.90
9103;DHT22;4587;51.434;6.788;2023-05-08T11:03:18;22.60;99.90
9103;DHT22;4587;51.434;6.788;2023-05-08T11:05:45;22.50;99.90
9103;DHT22;4587;51.434;6.788;2023-05-08T11:08:22;22.60;99.90
9103;DHT22;4587;51.434;6.788;2023-05-08T11:13:30;22.90;99.90
9103;DHT22;4587;51.434;6.788;2023-05-08T11:15:56;23.00;99.90
9103;DHT22;4587;51.434;6.788;2023-05-08T11:18:22;22.90;99.90
9103;DHT22;4587;51.434;6.788;2023-05-08T11:20:59;23.10;99.90
9103;DHT22;4587;51.434;6.788;2023-05-08T11:23:29;23.10;99.90
9103;DHT22;4587;51.434;6.788;2023-05-08T11:26:03;23.20;99.90
9103;DHT22;4587;51.434;6.788;2023-05-08T11:28:39;23.10;99.90
9103;DHT22;4587;51.434;6.788;2023-05-08T11:31:07;23.20;99.90
9103;DHT22;4587;51.434;6.788;2023-05-08T11:33:36;23.20;99.90
9103;DHT22;4587;51.434;6.788;2023-05-08T11:36:18;23.20;99.90
9103;DHT22;4587;51.434;6.788;2023-05-08T11:39:09;23.30;99.90
9103;DHT22;4587;51.434;6.788;2023-05-08T11:41:40;23.40;99.90
9103;DHT22;4587;51.434;6.788;2023-05-08T11:44:16;23.40;99.90
9103;DHT22;4587;51.434;6.788;2023-05-08T11:46:54;23.30;99.90
9103;DHT22;4587;51.434;6.788;2023-05-08T11:49:22;23.30;99.90
9103;DHT22;4587;51.434;6.788;2023-05-08T11:51:50;23.20;99.90
9103;DHT22;4587;51.434;6.788;2023-05-08T11:54:20;23.30;99.90
9103;DHT22;4587;51.434;6.788;2023-05-08T11:56:52;23.30;99.90
9103;DHT22;4587;51.434;6.788;2023-05-08T11:59:21;23.20;99.90
9103;DHT22;4587;51.434;6.788;2023-05-08T12:01:48;23.30;99.90
9103;DHT22;4587;51.434;6.788;2023-05-08T12:04:14;23.30;99.90
9103;DHT22;4587;51.434;6.788;2023-05-08T12:06:40;23.40;99.90
9103;DHT22;4587;51.434;6.788;2023-05-08T12:09:17;23.40;99.90
9103;DHT22;4587;51.434;6.788;2023-05-08T12:11:43;23.50;99.90
9103;DHT22;4587;51.434;6.788;2023-05-08T12:14:16;23.40;99.90
9103;DHT22;4587;51.434;6.788;2023-05-08T12:16:42;23.40;99.90
9103;DHT22;4587;51.434;6.788;2023-05-08T12:19:12;23.40;99.90
9103;DHT22;4587;51.434;6.788;2023-05-08T12:21:38;23.40;99.90
9103;DHT22;4587;51.434;6.788;2023-05-08T12:24:09;23.30;99.90
9103;DHT22;4587;51.434;6.788;2023-05-08T12:26:36;23.20;99.90
9103;DHT22;4587;51.434;6.788;2023-05-08T12:29:05;23.20;99.90
9103;DHT22;4587;51.434;6.788;2023-05-08T12:31:35;23.10;99.90
9103;DHT22;4587;51.434;6.788;2023-05-08T12:34:02;23.10;99.90
9103;DHT22;4587;51.434;6.788;2023-05-08T12:36:33;23.00;99.90
9103;DHT22;4587;51.434;6.788;2023-05-08T12:39:17;23.00;99.90
9103;DHT22;4587;51.434;6.788;2023-05-08T12:41:47;23.00;99.90
9103;DHT22;4587;51.434;6.788;2023-05-08T12:44:22;23.00;99.90
9103;DHT22;4587;51.434;6.788;2023-05-08T12:46:55;22.90;99.90
9103;DHT22;4587;51.434;6.788;2023-05-08T12:49:29;23.00;99.90
9103;DHT22;4587;51.434;6.788;2023-05-08T12:52:02;22.90;99.90
9103;DHT22;4587;51.434;6.788;2023-05-08T12:54:36;23.00;99.90
9103;DHT22;4587;51.434;6.788;2023-05-08T12:57:28;23.00;99.90
9103;DHT22;4587;51.434;6.788;2023-05-08T13:00:02;23.10;99.90
9103;DHT22;4587;51.434;6.788;2023-05-08T13:02:28;23.10;99.90
9103;DHT22;4587;51.434;6.788;2023-05-08T13:04:54;23.10;99.90
9103;DHT22;4587;51.434;6.788;2023-05-08T13:07:22;23.10;99.90
9103;DHT22;4587;51.434;6.788;2023-05-08T13:10:01;23.10;99.90
9103;DHT22;4587;51.434;6.788;2023-05-08T13:12:29;23.10;99.90
9103;DHT22;4587;51.434;6.788;2023-05-08T13:14:54;22.90;99.90
9103;DHT22;4587;51.434;6.788;2023-05-08T13:17:20;22.90;99.90
9103;DHT22;4587;51.434;6.788;2023-05-08T13:19:46;23.00;99.90
9103;DHT22;4587;51.434;6.788;2023-05-08T13:22:11;23.00;99.90
9103;DHT22;4587;51.434;6.788;2023-05-08T13:24:37;23.10;99.90
9103;DHT22;4587;51.434;6.788;2023-05-08T13:27:02;23.10;99.90
9103;DHT22;4587;51.434;6.788;2023-05-08T13:29:28;23.20;99.90
9103;DHT22;4587;51.434;6.788;2023-05-08T13:31:54;23.30;99.90
9103;DHT22;4587;51.434;6.788;2023-05-08T13:34:19;23.40;99.90
9103;DHT22;4587;51.434;6.788;2023-05-08T13:36:45;23.60;99.90
9103;DHT22;4587;51.434;6.788;2023-05-08T13:39:10;23.90;99.90
9103;DHT22;4587;51.434;6.788;2023-05-08T13:41:36;24.00;99.90
9103;DHT22;4587;51.434;6.788;2023-05-08T13:44:01;24.20;99.90
9103;DHT22;4587;51.434;6.788;2023-05-08T13:46:27;24.30;99.90
9103;DHT22;4587;51.434;6.788;2023-05-08T13:48:52;24.30;99.90
9103;DHT22;4587;51.434;6.788;2023-05-08T13:51:18;24.30;99.90
9103;DHT22;4587;51.434;6.788;2023-05-08T13:53:44;24.20;99.90
9103;DHT22;4587;51.434;6.788;2023-05-08T13:56:09;24.30;99.90
9103;DHT22;4587;51.434;6.788;2023-05-08T13:58:35;24.30;99.90
9103;DHT22;4587;51.434;6.788;2023-05-08T14:01:00;24.20;99.90
9103;DHT22;4587;51.434;6.788;2023-05-08T14:03:26;24.10;99.90
9103;DHT22;4587;51.434;6.788;2023-05-08T14:05:51;24.10;99.90
9103;DHT22;4587;51.434;6.788;2023-05-08T14:08:17;24.00;99.90
9103;DHT22;4587;51.434;6.788;2023-05-08T14:10:43;24.00;99.90
9103;DHT22;4587;51.434;6.788;2023-05-08T14:13:08;23.90;99.90
9103;DHT22;4587;51.434;6.788;2023-05-08T14:15:34;23.90;99.90
9103;DHT22;4587;51.434;6.788;2023-05-08T14:17:59;23.80;99.90
9103;DHT22;4587;51.434;6.788;2023-05-08T14:20:25;23.70;99.90
9103;DHT22;4587;51.434;6.788;2023-05-08T14:22:50;23.50;99.90
9103;DHT22;4587;51.434;6.788;2023-05-08T14:25:16;23.30;99.90
9103;DHT22;4587;51.434;6.788;2023-05-08T14:27:41;23.20;99.90
9103;DHT22;4587;51.434;6.788;2023-05-08T14:30:07;23.20;99.90
9103;DHT22;4587;51.434;6.788;2023-05-08T14:32:33;23.20;99.90
9103;DHT22;4587;51.434;6.788;2023-05-08T14:34:58;23.20;99.90
9103;DHT22;4587;51.434;6.788;2023-05-08T14:37:24;23.20;99.90
9103;DHT22;4587;51.434;6.788;2023-05-08T14:39:51;23.10;99.90
9103;DHT22;4587;51.434;6.788;2023-05-08T14:42:18;23.00;99.90
9103;DHT22;4587;51.434;6.788;2023-05-08T14:44:44;23.10;99.90
9103;DHT22;4587;51.434;6.788;2023-05-08T14:47:09;23.10;99.90
9103;DHT22;4587;51.434;6.788;2023-05-08T14:49:35;23.10;99.90
9103;DHT22;4587;51.434;6.788;2023-05-08T14:52:01;23.10;99.90
9103;DHT22;4587;51.434;6.788;2023-05-08T14:54:26;23.10;99.90
9103;DHT22;4587;51.434;6.788;2023-05-08T14:56:52;23.10;99.90
9103;DHT22;4587;51.434;6.788;2023-05-08T14:59:17;23.10;99.90
9103;DHT22;4587;51.434;6.788;2023-05-08T15:01:43;23.10;99.90
9103;DHT22;4587;51.434;6.788;2023-05-08T15:04:09;23.00;99.90
9103;DHT22;4587;51.434;6.788;2023-05-08T15:06:35;22.90;99.90
9103;DHT22;4587;51.434;6.788;2023-05-08T15:09:01;22.90;99.90
9103;DHT22;4587;51.434;6.788;2023-05-08T15:11:27;22.80;99.90
9103;DHT22;4587;51.434;6.788;2023-05-08T15:13:52;22.70;99.90
9103;DHT22;4587;51.434;6.788;2023-05-08T15:16:18;22.60;99.90
9103;DHT22;4587;51.434;6.788;2023-05-08T15:18:43;22.50;99.90
9103;DHT22;4587;51.434;6.788;2023-05-08T15:21:09;22.40;99.90
9103;DHT22;4587;51.434;6.788;2023-05-08T15:23:34;22.40;99.90
9103;DHT22;4587;51.434;6.788;2023-05-08T15:26:02;22.40;99.90
9103;DHT22;4587;51.434;6.788;2023-05-08T15:28:27;22.40;99.90
9103;DHT22;4587;51.434;6.788;2023-05-08T15:30:53;22.40;99.90
9103;DHT22;4587;51.434;6.788;2023-05-08T15:33:18;22.40;99.90
9103;DHT22;4587;51.434;6.788;2023-05-08T15:35:44;22.40;99.90
9103;DHT22;4587;51.434;6.788;2023-05-08T15:38:12;22.40;99.90
9103;DHT22;4587;51.434;6.788;2023-05-08T15:40:38;22.40;99.90
9103;DHT22;4587;51.434;6.788;2023-05-08T15:43:04;22.40;99.90
9103;DHT22;4587;51.434;6.788;2023-05-08T15:45:29;22.40;99.90
9103;DHT22;4587;51.434;6.788;2023-05-08T15:47:55;22.30;99.90
9103;DHT22;4587;51.434;6.788;2023-05-08T15:50:21;22.30;99.90
9103;DHT22;4587;51.434;6.788;2023-05-08T15:52:48;22.10;99.90
9103;DHT22;4587;51.434;6.788;2023-05-08T15:55:13;22.00;99.90
9103;DHT22;4587;51.434;6.788;2023-05-08T15:57:39;22.00;99.90
9103;DHT22;4587;51.434;6.788;2023-05-08T16:00:05;21.80;99.90
9103;DHT22;4587;51.434;6.788;2023-05-08T16:02:31;21.80;99.90
9103;DHT22;4587;51.434;6.788;2023-05-08T16:04:56;21.70;99.90
9103;DHT22;4587;51.434;6.788;2023-05-08T16:07:22;21.90;99.90
9103;DHT22;4587;51.434;6.788;2023-05-08T16:09:47;21.80;99.90
9103;DHT22;4587;51.434;6.788;2023-05-08T16:12:13;21.80;99.90
9103;DHT22;4587;51.434;6.788;2023-05-08T16:14:38;21.80;99.90
9103;DHT22;4587;51.434;6.788;2023-05-08T16:17:04;21.70;99.90
9103;DHT22;4587;51.434;6.788;2023-05-08T16:19:30;21.60;99.90
9103;DHT22;4587;51.434;6.788;2023-05-08T16:21:55;21.50;99.90
9103;DHT22;4587;51.434;6.788;2023-05-08T16:24:21;21.40;99.90
9103;DHT22;4587;51.434;6.788;2023-05-08T16:26:46;21.30;99.90
9103;DHT22;4587;51.434;6.788;2023-05-08T16:29:12;21.20;99.90
9103;DHT22;4587;51.434;6.788;2023-05-08T16:31:37;21.10;99.90
9103;DHT22;4587;51.434;6.788;2023-05-08T16:34:03;21.20;99.90
9103;DHT22;4587;51.434;6.788;2023-05-08T16:36:28;21.20;99.90
9103;DHT22;4587;51.434;6.788;2023-05-08T16:38:54;21.10;99.90
9103;DHT22;4587;51.434;6.788;2023-05-08T16:41:19;20.90;99.90
9103;DHT22;4587;51.434;6.788;2023-05-08T16:43:45;20.90;99.90
9103;DHT22;4587;51.434;6.788;2023-05-08T16:46:11;20.80;99.90
9103;DHT22;4587;51.434;6.788;2023-05-08T16:48:36;20.70;99.90
9103;DHT22;4587;51.434;6.788;2023-05-08T16:51:02;20.70;99.90